sensor_id;sensor_type;location;lat;lon;timestamp;temperature;humidity
23116;DHT22;11727;52.134;5.052;2023-08-06T00:00:19;15.40;99.90
23116;DHT22;11727;52.134;5.052;2023-08-06T00:02:44;15.40;99.90
23116;DHT22;11727;52.134;5.052;2023-08-06T00:05:10;15.40;99.90
23116;DHT22;11727;52.134;5.052;2023-08-06T00:07:35;15.40;99.90
23116;DHT22;11727;52.134;5.052;2023-08-06T00:10:01;15.40;99.90
23116;DHT22;11727;52.134;5.052;2023-08-06T00:12:27;15.40;99.90
23116;DHT22;11727;52.134;5.052;2023-08-06T00:14:52;15.40;99.90
23116;DHT22;11727;52.134;5.052;2023-08-06T00:17:18;15.40;99.90
23116;DHT22;11727;52.134;5.052;2023-08-06T00:19:44;15.40;99.90
23116;DHT22;11727;52.134;5.052;2023-08-06T00:22:10;15.40;99.90
23116;DHT22;11727;52.134;5.052;2023-08-06T00:24:35;15.40;99.90
23116;DHT22;11727;52.134;5.052;2023-08-06T00:27:02;15.40;99.90
23116;DHT22;11727;52.134;5.052;2023-08-06T00:29:28;15.50;99.90
23116;DHT22;11727;52.134;5.052;2023-08-06T00:31:53;15.40;99.90
23116;DHT22;11727;52.134;5.052;2023-08-06T00:34:19;15.40;99.90
23116;DHT22;11727;52.134;5.052;2023-08-06T00:36:44;15.50;99.90
23116;DHT22;11727;52.134;5.052;2023-08-06T00:39:10;15.40;99.90
23116;DHT22;11727;52.134;5.052;2023-08-06T00:41:36;15.40;99.90
23116;DHT22;11727;52.134;5.052;2023-08-06T00:44:02;15.40;99.90
23116;DHT22;11727;52.134;5.052;2023-08-06T00:46:27;15.40;99.90
23116;DHT22;11727;52.134;5.052;2023-08-06T00:48:53;15.40;99.90
23116;DHT22;11727;52.134;5.052;2023-08-06T00:51:20;15.40;99.90
23116;DHT22;11727;52.134;5.052;2023-08-06T00:53:46;15.40;99.90
23116;DHT22;11727;52.134;5.052;2023-08-06T00:56:13;15.40;99.90
23116;DHT22;11727;52.134;5.052;2023-08-06T00:58:39;15.40;99.90
23116;DHT22;11727;52.134;5.052;2023-08-06T01:01:05;15.40;99.90
23116;DHT22;11727;52.134;5.052;2023-08-06T01:03:31;15.40;99.90
23116;DHT22;11727;52.134;5.052;2023-08-06T01:05:57;15.40;99.90
23116;DHT22;11727;52.134;5.052;2023-08-06T01:13:58;15.40;99.90
23116;DHT22;11727;52.134;5.052;2023-08-06T01:16:25;15.40;99.90
23116;DHT22;11727;52.134;5.052;2023-08-06T01:18:51;15.40;99.90
23116;DHT22;11727;52.134;5.052;2023-08-06T01:21:17;15.40;99.90
23116;DHT22;11727;52.134;5.052;2023-08-06T01:23:43;15.40;99.90
23116;DHT22;11727;52.134;5.052;2023-08-06T01:26:39;15.50;99.90
23116;DHT22;11727;52.134;5.052;2023-08-06T01:29:32;15.40;99.90
23116;DHT22;11727;52.134;5.052;2023-08-06T01:31:59;15.40;99.90
23116;DHT22;11727;52.134;5.052;2023-08-06T01:34:29;15.40;99.90
23116;DHT22;11727;52.134;5.052;2023-08-06T01:36:56;15.40;99.90
23116;DHT22;11727;52.134;5.052;2023-08-06T01:39:23;15.40;99.90
23116;DHT22;11727;52.134;5.052;2023-08-06T01:41:48;15.40;99.90
23116;DHT22;11727;52.134;5.052;2023-08-06T01:44:15;15.40;99.90
23116;DHT22;11727;52.134;5.052;2023-08-06T01:46:41;15.40;99.90
23116;DHT22;11727;52.134;5.052;2023-08-06T01:49:06;15.40;99.90
23116;DHT22;11727;52.134;5.052;2023-08-06T01:51:32;15.40;99.90
23116;DHT22;11727;52.134;5.052;2023-08-06T01:53:58;15.40;99.90
23116;DHT22;11727;52.134;5.052;2023-08-06T01:56:24;15.30;99.90
23116;DHT22;11727;52.134;5.052;2023-08-06T01:58:49;15.40;99.90
23116;DHT22;11727;52.134;5.052;2023-08-06T02:01:15;15.30;99.90
23116;DHT22;11727;52.134;5.052;2023-08-06T02:03:40;15.30;99.90
23116;DHT22;11727;52.134;5.052;2023-08-06T02:06:06;15.30;99.90
23116;DHT22;11727;52.134;5.052;2023-08-06T02:08:32;15.30;99.90
23116;DHT22;11727;52.134;5.052;2023-08-06T02:10:57;15.30;99.90
23116;DHT22;11727;52.134;5.052;2023-08-06T02:13:23;15.30;99.90
23116;DHT22;11727;52.134;5.052;2023-08-06T02:15:49;15.30;99.90
23116;DHT22;11727;52.134;5.052;2023-08-06T02:18:15;15.30;99.90
23116;DHT22;11727;52.134;5.052;2023-08-06T02:20:41;15.30;99.90
23116;DHT22;11727;52.134;5.052;2023-08-06T02:23:07;15.30;99.90
23116;DHT22;11727;52.134;5.052;2023-08-06T02:25:33;15.30;99.90
23116;DHT22;11727;52.134;5.052;2023-08-06T02:27:59;15.30;99.90
23116;DHT22;11727;52.134;5.052;2023-08-06T02:30:25;15.30;99.90
23116;DHT22;11727;52.134;5.052;2023-08-06T02:32:50;15.30;99.90
23116;DHT22;11727;52.134;5.052;2023-08-06T02:35:16;15.40;99.90
23116;DHT22;11727;52.134;5.052;2023-08-06T02:37:41;15.40;99.90
23116;DHT22;11727;52.134;5.052;2023-08-06T02:40:07;15.40;99.90
23116;DHT22;11727;52.134;5.052;2023-08-06T02:42:33;15.30;99.90
23116;DHT22;11727;52.134;5.052;2023-08-06T02:44:59;15.30;99.90
23116;DHT22;11727;52.134;5.052;2023-08-06T02:47:24;15.40;99.90
23116;DHT22;11727;52.134;5.052;2023-08-06T02:49:50;15.40;99.90
23116;DHT22;11727;52.134;5.052;2023-08-06T02:52:15;15.40;99.90
23116;DHT22;11727;52.134;5.052;2023-08-06T02:54:41;15.40;99.90
23116;DHT22;11727;52.134;5.052;2023-08-06T02:57:07;15.40;99.90
23116;DHT22;11727;52.134;5.052;2023-08-06T02:59:33;15.40;99.90
23116;DHT22;11727;52.134;5.052;2023-08-06T03:01:58;15.40;99.90
23116;DHT22;11727;52.134;5.052;2023-08-06T03:04:24;15.40;99.90
23116;DHT22;11727;52.134;5.052;2023-08-06T03:06:50;15.30;99.90
23116;DHT22;11727;52.134;5.052;2023-08-06T03:09:19;15.30;99.90
23116;DHT22;11727;52.134;5.052;2023-08-06T03:11:44;15.30;99.90
23116;DHT22;11727;52.134;5.052;2023-08-06T03:14:10;15.30;99.90
23116;DHT22;11727;52.134;5.052;2023-08-06T03:16:36;15.40;99.90
23116;DHT22;11727;52.134;5.052;2023-08-06T03:19:02;15.30;99.90
23116;DHT22;11727;52.134;5.052;2023-08-06T03:21:27;15.30;99.90
23116;DHT22;11727;52.134;5.052;2023-08-06T03:23:53;15.40;99.90
23116;DHT22;11727;52.134;5.052;2023-08-06T03:26:19;15.40;99.90
23116;DHT22;11727;52.134;5.052;2023-08-06T03:28:44;15.40;99.90
23116;DHT22;11727;52.134;5.052;2023-08-06T03:31:10;15.40;99.90
23116;DHT22;11727;52.134;5.052;2023-08-06T03:33:35;15.40;99.90
23116;DHT22;11727;52.134;5.052;2023-08-06T03:36:01;15.40;99.90
23116;DHT22;11727;52.134;5.052;2023-08-06T03:38:27;15.40;99.90
23116;DHT22;11727;52.134;5.052;2023-08-06T03:40:53;15.40;99.90
23116;DHT22;11727;52.134;5.052;2023-08-06T03:43:18;15.40;99.90
23116;DHT22;11727;52.134;5.052;2023-08-06T03:45:44;15.50;99.90
23116;DHT22;11727;52.134;5.052;2023-08-06T03:48:10;15.40;99.90
23116;DHT22;11727;52.134;5.052;2023-08-06T03:50:35;15.40;99.90
23116;DHT22;11727;52.134;5.052;2023-08-06T03:53:01;15.40;99.90
23116;DHT22;11727;52.134;5.052;2023-08-06T03:55:27;15.40;99.90
23116;DHT22;11727;52.134;5.052;2023-08-06T03:57:52;15.40;99.90
23116;DHT22;11727;52.134;5.052;2023-08-06T04:00:18;15.40;99.90
23116;DHT22;11727;52.134;5.052;2023-08-06T04:02:53;15.40;99.90
23116;DHT22;11727;52.134;5.052;2023-08-06T04:05:19;15.40;99.90
23116;DHT22;11727;52.134;5.052;2023-08-06T04:07:45;15.30;99.90
23116;DHT22;11727;52.134;5.052;2023-08-06T04:10:10;15.30;99.90
23116;DHT22;11727;52.134;5.052;2023-08-06T04:12:36;15.30;99.90
23116;DHT22;11727;52.134;5.052;2023-08-06T04:15:03;15.30;99.90
23116;DHT22;11727;52.134;5.052;2023-08-06T04:17:29;15.30;99.90
23116;DHT22;11727;52.134;5.052;2023-08-06T04:19:55;15.30;99.90
23116;DHT22;11727;52.134;5.052;2023-08-06T04:22:25;15.30;99.90
23116;DHT22;11727;52.134;5.052;2023-08-06T04:24:51;15.30;99.90
23116;DHT22;11727;52.134;5.052;2023-08-06T04:27:19;15.30;99.90
23116;DHT22;11727;52.134;5.052;2023-08-06T04:29:45;15.20;99.90
23116;DHT22;11727;52.134;5.052;2023-08-06T04:32:12;15.20;99.90
23116;DHT22;11727;52.134;5.052;2023-08-06T04:34:51;15.20;99.90
23116;DHT22;11727;52.134;5.052;2023-08-06T04:37:25;15.20;99.90
23116;DHT22;11727;52.134;5.052;2023-08-06T04:39:53;15.10;99.90
23116;DHT22;11727;52.134;5.052;2023-08-06T04:42:19;15.10;99.90
23116;DHT22;11727;52.134;5.052;2023-08-06T04:44:51;15.10;99.90
23116;DHT22;11727;52.134;5.052;2023-08-06T04:47:17;15.10;99.90
23116;DHT22;11727;52.134;5.052;2023-08-06T04:49:44;15.10;99.90
23116;DHT22;11727;52.134;5.052;2023-08-06T04:52:10;15.20;99.90
23116;DHT22;11727;52.134;5.052;2023-08-06T04:54:36;15.20;99.90
23116;DHT22;11727;52.134;5.052;2023-08-06T04:57:14;15.20;99.90
23116;DHT22;11727;52.134;5.052;2023-08-06T04:59:45;15.20;99.90
23116;DHT22;11727;52.134;5.052;2023-08-06T05:02:11;15.20;99.90
23116;DHT22;11727;52.134;5.052;2023-08-06T05:04:39;15.20;99.90
23116;DHT22;11727;52.134;5.052;2023-08-06T05:07:07;15.20;99.90
23116;DHT22;11727;52.134;5.052;2023-08-06T05:09:35;15.20;99.90
23116;DHT22;11727;52.134;5.052;2023-08-06T05:12:00;15.20;99.90
23116;DHT22;11727;52.134;5.052;2023-08-06T05:14:26;15.20;99.90
23116;DHT22;11727;52.134;5.052;2023-08-06T05:16:58;15.20;99.90
23116;DHT22;11727;52.134;5.052;2023-08-06T05:19:27;15.20;99.90
23116;DHT22;11727;52.134;5.052;2023-08-06T05:21:53;15.20;99.90
23116;DHT22;11727;52.134;5.052;2023-08-06T05:24:19;15.20;99.90
23116;DHT22;11727;52.134;5.052;2023-08-06T05:26:44;15.10;99.90
23116;DHT22;11727;52.134;5.052;2023-08-06T05:29:13;15.10;99.90
23116;DHT22;11727;52.134;5.052;2023-08-06T05:31:41;15.10;99.90
23116;DHT22;11727;52.134;5.052;2023-08-06T05:34:07;15.10;99.90
23116;DHT22;11727;52.134;5.052;2023-08-06T05:36:33;15.10;99.90
23116;DHT22;11727;52.134;5.052;2023-08-06T05:39:01;15.10;99.90
23116;DHT22;11727;52.134;5.052;2023-08-06T05:41:29;15.00;99.90
23116;DHT22;11727;52.134;5.052;2023-08-06T05:43:54;15.00;99.90
23116;DHT22;11727;52.134;5.052;2023-08-06T05:46:20;15.00;99.90
23116;DHT22;11727;52.134;5.052;2023-08-06T05:48:48;15.00;99.90
23116;DHT22;11727;52.134;5.052;2023-08-06T05:51:15;15.00;99.90
23116;DHT22;11727;52.134;5.052;2023-08-06T05:53:58;14.90;99.90
23116;DHT22;11727;52.134;5.052;2023-08-06T05:56:27;14.90;99.90
23116;DHT22;11727;52.134;5.052;2023-08-06T05:58:52;14.90;99.90
23116;DHT22;11727;52.134;5.052;2023-08-06T06:01:18;14.90;99.90
23116;DHT22;11727;52.134;5.052;2023-08-06T06:03:44;14.80;99.90
23116;DHT22;11727;52.134;5.052;2023-08-06T06:06:10;14.80;99.90
23116;DHT22;11727;52.134;5.052;2023-08-06T06:08:35;14.80;99.90
23116;DHT22;11727;52.134;5.052;2023-08-06T06:11:01;14.70;99.90
23116;DHT22;11727;52.134;5.052;2023-08-06T06:13:27;14.70;99.90
23116;DHT22;11727;52.134;5.052;2023-08-06T06:15:55;14.70;99.90
23116;DHT22;11727;52.134;5.052;2023-08-06T06:18:22;14.70;99.90
23116;DHT22;11727;52.134;5.052;2023-08-06T06:20:47;14.70;99.90
23116;DHT22;11727;52.134;5.052;2023-08-06T06:23:13;14.60;99.90
23116;DHT22;11727;52.134;5.052;2023-08-06T06:25:47;14.60;99.90
23116;DHT22;11727;52.134;5.052;2023-08-06T06:28:13;14.60;99.90
23116;DHT22;11727;52.134;5.052;2023-08-06T06:30:40;14.60;99.90
23116;DHT22;11727;52.134;5.052;2023-08-06T06:33:06;14.60;99.90
23116;DHT22;11727;52.134;5.052;2023-08-06T06:35:33;14.60;99.90
23116;DHT22;11727;52.134;5.052;2023-08-06T06:38:01;14.60;99.90
23116;DHT22;11727;52.134;5.052;2023-08-06T06:40:30;14.60;99.90
23116;DHT22;11727;52.134;5.052;2023-08-06T06:42:55;14.60;99.90
23116;DHT22;11727;52.134;5.052;2023-08-06T06:45:21;14.70;99.90
23116;DHT22;11727;52.134;5.052;2023-08-06T06:47:46;14.70;99.90
23116;DHT22;11727;52.134;5.052;2023-08-06T06:50:12;14.70;99.90
23116;DHT22;11727;52.134;5.052;2023-08-06T06:52:38;14.70;99.90
23116;DHT22;11727;52.134;5.052;2023-08-06T06:55:04;14.70;99.90
23116;DHT22;11727;52.134;5.052;2023-08-06T06:57:29;14.70;99.90
23116;DHT22;11727;52.134;5.052;2023-08-06T06:59:55;14.80;99.90
23116;DHT22;11727;52.134;5.052;2023-08-06T07:02:20;14.80;99.90
23116;DHT22;11727;52.134;5.052;2023-08-06T07:04:46;14.80;99.90
23116;DHT22;11727;52.134;5.052;2023-08-06T07:07:12;14.80;99.90
23116;DHT22;11727;52.134;5.052;2023-08-06T07:09:37;14.80;99.90
23116;DHT22;11727;52.134;5.052;2023-08-06T07:12:03;14.80;99.90
23116;DHT22;11727;52.134;5.052;2023-08-06T07:14:29;14.90;99.90
23116;DHT22;11727;52.134;5.052;2023-08-06T07:16:55;14.90;99.90
23116;DHT22;11727;52.134;5.052;2023-08-06T07:19:20;14.90;99.90
23116;DHT22;11727;52.134;5.052;2023-08-06T07:21:46;14.90;99.90
23116;DHT22;11727;52.134;5.052;2023-08-06T07:24:12;14.90;99.90
23116;DHT22;11727;52.134;5.052;2023-08-06T07:26:38;14.90;99.90
23116;DHT22;11727;52.134;5.052;2023-08-06T07:29:03;14.90;99.90
23116;DHT22;11727;52.134;5.052;2023-08-06T07:31:29;14.90;99.90
23116;DHT22;11727;52.134;5.052;2023-08-06T07:33:55;14.90;99.90
23116;DHT22;11727;52.134;5.052;2023-08-06T07:36:20;14.90;99.90
23116;DHT22;11727;52.134;5.052;2023-08-06T07:38:46;14.90;99.90
23116;DHT22;11727;52.134;5.052;2023-08-06T07:41:12;14.90;99.90
23116;DHT22;11727;52.134;5.052;2023-08-06T07:43:38;15.00;99.90
23116;DHT22;11727;52.134;5.052;2023-08-06T07:46:04;15.00;99.90
23116;DHT22;11727;52.134;5.052;2023-08-06T07:48:30;15.00;99.90
23116;DHT22;11727;52.134;5.052;2023-08-06T07:50:56;15.00;99.90
23116;DHT22;11727;52.134;5.052;2023-08-06T07:53:22;15.00;99.90
23116;DHT22;11727;52.134;5.052;2023-08-06T07:55:50;15.00;99.90
23116;DHT22;11727;52.134;5.052;2023-08-06T07:58:16;15.00;99.90
23116;DHT22;11727;52.134;5.052;2023-08-06T08:00:42;15.10;99.90
23116;DHT22;11727;52.134;5.052;2023-08-06T08:03:11;15.00;99.90
23116;DHT22;11727;52.134;5.052;2023-08-06T08:05:38;15.10;99.90
23116;DHT22;11727;52.134;5.052;2023-08-06T08:08:04;15.10;99.90
23116;DHT22;11727;52.134;5.052;2023-08-06T08:10:31;15.10;99.90
23116;DHT22;11727;52.134;5.052;2023-08-06T08:12:57;15.20;99.90
23116;DHT22;11727;52.134;5.052;2023-08-06T08:15:22;15.20;99.90
23116;DHT22;11727;52.134;5.052;2023-08-06T08:17:48;15.20;99.90
23116;DHT22;11727;52.134;5.052;2023-08-06T08:20:16;15.20;99.90
23116;DHT22;11727;52.134;5.052;2023-08-06T08:22:41;15.10;99.90
23116;DHT22;11727;52.134;5.052;2023-08-06T08:25:07;15.20;99.90
23116;DHT22;11727;52.134;5.052;2023-08-06T08:27:33;15.20;99.90
23116;DHT22;11727;52.134;5.052;2023-08-06T08:29:58;15.20;99.90
23116;DHT22;11727;52.134;5.052;2023-08-06T08:32:24;15.20;99.90
23116;DHT22;11727;52.134;5.052;2023-08-06T08:34:49;15.20;99.90
23116;DHT22;11727;52.134;5.052;2023-08-06T08:37:15;15.30;99.90
23116;DHT22;11727;52.134;5.052;2023-08-06T08:39:41;15.30;99.90
23116;DHT22;11727;52.134;5.052;2023-08-06T08:42:06;15.30;99.90
23116;DHT22;11727;52.134;5.052;2023-08-06T08:44:32;15.20;99.90
23116;DHT22;11727;52.134;5.052;2023-08-06T08:46:59;15.20;99.90
23116;DHT22;11727;52.134;5.052;2023-08-06T08:49:26;15.20;99.90
23116;DHT22;11727;52.134;5.052;2023-08-06T08:51:53;15.20;99.90
23116;DHT22;11727;52.134;5.052;2023-08-06T08:54:20;15.20;99.90
23116;DHT22;11727;52.134;5.052;2023-08-06T08:56:48;15.30;99.90
23116;DHT22;11727;52.134;5.052;2023-08-06T08:59:13;15.30;99.90
23116;DHT22;11727;52.134;5.052;2023-08-06T09:01:40;15.30;99.90
23116;DHT22;11727;52.134;5.052;2023-08-06T09:04:08;15.30;99.90
23116;DHT22;11727;52.134;5.052;2023-08-06T09:06:36;15.30;99.90
23116;DHT22;11727;52.134;5.052;2023-08-06T09:09:12;15.40;99.90
23116;DHT22;11727;52.134;5.052;2023-08-06T09:11:45;15.40;99.90
23116;DHT22;11727;52.134;5.052;2023-08-06T09:14:11;15.40;99.90
23116;DHT22;11727;52.134;5.052;2023-08-06T09:16:37;15.50;99.90
23116;DHT22;11727;52.134;5.052;2023-08-06T09:19:10;15.50;99.90
23116;DHT22;11727;52.134;5.052;2023-08-06T09:21:38;15.60;99.90
23116;DHT22;11727;52.134;5.052;2023-08-06T09:24:11;15.70;99.90
23116;DHT22;11727;52.134;5.052;2023-08-06T09:26:44;15.60;99.90
23116;DHT22;11727;52.134;5.052;2023-08-06T09:29:11;15.60;99.90
23116;DHT22;11727;52.134;5.052;2023-08-06T09:36:46;15.60;99.90
23116;DHT22;11727;52.134;5.052;2023-08-06T09:39:13;15.70;99.90
23116;DHT22;11727;52.134;5.052;2023-08-06T09:41:40;15.60;99.90
23116;DHT22;11727;52.134;5.052;2023-08-06T09:46:43;15.70;99.90
23116;DHT22;11727;52.134;5.052;2023-08-06T09:49:12;15.70;99.90
23116;DHT22;11727;52.134;5.052;2023-08-06T09:51:38;15.70;99.90
23116;DHT22;11727;52.134;5.052;2023-08-06T09:54:05;15.60;99.90
23116;DHT22;11727;52.134;5.052;2023-08-06T09:56:36;15.70;99.90
23116;DHT22;11727;52.134;5.052;2023-08-06T09:59:04;15.70;99.90
23116;DHT22;11727;52.134;5.052;2023-08-06T10:01:35;15.70;99.90
23116;DHT22;11727;52.134;5.052;2023-08-06T10:04:05;15.70;99.90
23116;DHT22;11727;52.134;5.052;2023-08-06T10:06:34;15.70;99.90
23116;DHT22;11727;52.134;5.052;2023-08-06T10:09:04;15.70;99.90
23116;DHT22;11727;52.134;5.052;2023-08-06T10:11:30;15.70;99.90
23116;DHT22;11727;52.134;5.052;2023-08-06T10:14:05;15.70;99.90
23116;DHT22;11727;52.134;5.052;2023-08-06T10:16:36;15.70;99.90
23116;DHT22;11727;52.134;5.052;2023-08-06T10:19:04;15.70;99.90
23116;DHT22;11727;52.134;5.052;2023-08-06T10:21:33;15.70;99.90
23116;DHT22;11727;52.134;5.052;2023-08-06T10:23:59;15.80;99.90
23116;DHT22;11727;52.134;5.052;2023-08-06T10:26:30;15.80;99.90
23116;DHT22;11727;52.134;5.052;2023-08-06T10:28:57;15.80;99.90
23116;DHT22;11727;52.134;5.052;2023-08-06T10:32:14;15.80;99.90
23116;DHT22;11727;52.134;5.052;2023-08-06T10:37:36;16.00;99.90
23116;DHT22;11727;52.134;5.052;2023-08-06T10:40:02;16.00;99.90
23116;DHT22;11727;52.134;5.052;2023-08-06T10:42:29;16.00;99.90
23116;DHT22;11727;52.134;5.052;2023-08-06T10:45:17;15.90;99.90
23116;DHT22;11727;52.134;5.052;2023-08-06T10:47:44;15.90;99.90
23116;DHT22;11727;52.134;5.052;2023-08-06T10:50:17;15.90;99.90
23116;DHT22;11727;52.134;5.052;2023-08-06T10:52:46;15.80;99.90
23116;DHT22;11727;52.134;5.052;2023-08-06T10:55:13;15.80;99.90
23116;DHT22;11727;52.134;5.052;2023-08-06T10:57:38;15.80;99.90
23116;DHT22;11727;52.134;5.052;2023-08-06T11:00:06;15.80;99.90
23116;DHT22;11727;52.134;5.052;2023-08-06T11:02:38;15.80;99.90
23116;DHT22;11727;52.134;5.052;2023-08-06T11:05:09;15.80;99.90
23116;DHT22;11727;52.134;5.052;2023-08-06T11:07:36;15.90;99.90
23116;DHT22;11727;52.134;5.052;2023-08-06T11:10:09;15.90;99.90
23116;DHT22;11727;52.134;5.052;2023-08-06T11:12:35;15.80;99.90
23116;DHT22;11727;52.134;5.052;2023-08-06T11:15:02;15.90;99.90
23116;DHT22;11727;52.134;5.052;2023-08-06T11:17:29;15.80;99.90
23116;DHT22;11727;52.134;5.052;2023-08-06T11:19:55;15.80;99.90
23116;DHT22;11727;52.134;5.052;2023-08-06T11:22:21;15.80;99.90
23116;DHT22;11727;52.134;5.052;2023-08-06T11:24:48;15.80;99.90
23116;DHT22;11727;52.134;5.052;2023-08-06T11:27:15;15.70;99.90
23116;DHT22;11727;52.134;5.052;2023-08-06T11:29:42;15.70;99.90
23116;DHT22;11727;52.134;5.052;2023-08-06T11:32:08;15.60;99.90
23116;DHT22;11727;52.134;5.052;2023-08-06T11:34:35;15.50;99.90
23116;DHT22;11727;52.134;5.052;2023-08-06T11:37:02;15.50;99.90
23116;DHT22;11727;52.134;5.052;2023-08-06T11:39:29;15.50;99.90
23116;DHT22;11727;52.134;5.052;2023-08-06T11:41:55;15.50;99.90
23116;DHT22;11727;52.134;5.052;2023-08-06T11:44:22;15.50;99.90
23116;DHT22;11727;52.134;5.052;2023-08-06T11:46:55;15.50;99.90
23116;DHT22;11727;52.134;5.052;2023-08-06T11:52:23;15.50;99.90
23116;DHT22;11727;52.134;5.052;2023-08-06T11:55:06;15.60;99.90
23116;DHT22;11727;52.134;5.052;2023-08-06T11:57:33;15.60;99.90
23116;DHT22;11727;52.134;5.052;2023-08-06T12:00:10;15.60;99.90
23116;DHT22;11727;52.134;5.052;2023-08-06T12:02:38;15.50;99.90
23116;DHT22;11727;52.134;5.052;2023-08-06T12:05:15;15.50;99.90
23116;DHT22;11727;52.134;5.052;2023-08-06T12:07:45;15.40;99.90
23116;DHT22;11727;52.134;5.052;2023-08-06T12:10:12;15.40;99.90
23116;DHT22;11727;52.134;5.052;2023-08-06T12:12:38;15.40;99.90
23116;DHT22;11727;52.134;5.052;2023-08-06T12:15:05;15.40;99.90
23116;DHT22;11727;52.134;5.052;2023-08-06T12:17:32;15.40;99.90
23116;DHT22;11727;52.134;5.052;2023-08-06T12:19:58;15.50;99.90
23116;DHT22;11727;52.134;5.052;2023-08-06T12:22:24;15.50;99.90
23116;DHT22;11727;52.134;5.052;2023-08-06T12:24:49;15.50;99.90
23116;DHT22;11727;52.134;5.052;2023-08-06T12:27:15;15.60;99.90
23116;DHT22;11727;52.134;5.052;2023-08-06T12:29:46;15.60;99.90
23116;DHT22;11727;52.134;5.052;2023-08-06T12:32:14;15.70;99.90
23116;DHT22;11727;52.134;5.052;2023-08-06T12:34:40;15.70;99.90
23116;DHT22;11727;52.134;5.052;2023-08-06T12:37:06;15.80;99.90
23116;DHT22;11727;52.134;5.052;2023-08-06T12:39:35;15.80;99.90
23116;DHT22;11727;52.134;5.052;2023-08-06T12:42:01;15.80;99.90
23116;DHT22;11727;52.134;5.052;2023-08-06T12:44:27;15.70;99.90
23116;DHT22;11727;52.134;5.052;2023-08-06T12:46:53;15.80;99.90
23116;DHT22;11727;52.134;5.052;2023-08-06T12:49:19;15.80;99.90
23116;DHT22;11727;52.134;5.052;2023-08-06T12:51:47;15.80;99.90
23116;DHT22;11727;52.134;5.052;2023-08-06T12:54:12;15.80;99.90
23116;DHT22;11727;52.134;5.052;2023-08-06T12:56:38;15.80;99.90
23116;DHT22;11727;52.134;5.052;2023-08-06T12:59:03;15.80;99.90
23116;DHT22;11727;52.134;5.052;2023-08-06T13:01:29;15.80;99.90
23116;DHT22;11727;52.134;5.052;2023-08-06T13:03:55;15.80;99.90
23116;DHT22;11727;52.134;5.052;2023-08-06T13:06:20;15.80;99.90
23116;DHT22;11727;52.134;5.052;2023-08-06T13:08:46;15.80;99.90
23116;DHT22;11727;52.134;5.052;2023-08-06T13:11:11;15.80;99.90
23116;DHT22;11727;52.134;5.052;2023-08-06T13:13:37;15.70;99.90
23116;DHT22;11727;52.134;5.052;2023-08-06T13:16:03;15.70;99.90
23116;DHT22;11727;52.134;5.052;2023-08-06T13:18:28;15.70;99.90
23116;DHT22;11727;52.134;5.052;2023-08-06T13:20:54;15.70;99.90
23116;DHT22;11727;52.134;5.052;2023-08-06T13:23:20;15.70;99.90
23116;DHT22;11727;52.134;5.052;2023-08-06T13:25:46;15.70;99.90
23116;DHT22;11727;52.134;5.052;2023-08-06T13:28:12;15.70;99.90
23116;DHT22;11727;52.134;5.052;2023-08-06T13:30:39;15.70;99.90
23116;DHT22;11727;52.134;5.052;2023-08-06T13:33:09;15.80;99.90
23116;DHT22;11727;52.134;5.052;2023-08-06T13:35:35;15.80;99.90
23116;DHT22;11727;52.134;5.052;2023-08-06T13:38:00;15.80;99.90
23116;DHT22;11727;52.134;5.052;2023-08-06T13:40:28;15.80;99.90
23116;DHT22;11727;52.134;5.052;2023-08-06T13:42:55;15.80;99.90
23116;DHT22;11727;52.134;5.052;2023-08-06T13:45:21;15.80;99.90
23116;DHT22;11727;52.134;5.052;2023-08-06T13:47:46;15.80;99.90
23116;DHT22;11727;52.134;5.052;2023-08-06T13:50:13;15.80;99.90
23116;DHT22;11727;52.134;5.052;2023-08-06T13:52:39;15.80;99.90
23116;DHT22;11727;52.134;5.052;2023-08-06T13:55:05;15.80;99.90
23116;DHT22;11727;52.134;5.052;2023-08-06T13:57:31;15.70;99.90
23116;DHT22;11727;52.134;5.052;2023-08-06T13:59:56;15.70;99.90
23116;DHT22;11727;52.134;5.052;2023-08-06T14:02:22;15.70;99.90
23116;DHT22;11727;52.134;5.052;2023-08-06T14:04:48;15.80;99.90
23116;DHT22;11727;52.134;5.052;2023-08-06T14:07:13;15.70;99.90
23116;DHT22;11727;52.134;5.052;2023-08-06T14:09:39;15.80;99.90
23116;DHT22;11727;52.134;5.052;2023-08-06T14:12:06;15.80;99.90
23116;DHT22;11727;52.134;5.052;2023-08-06T14:14:31;15.80;99.90
23116;DHT22;11727;52.134;5.052;2023-08-06T14:16:57;15.80;99.90
23116;DHT22;11727;52.134;5.052;2023-08-06T14:19:23;15.80;99.90
23116;DHT22;11727;52.134;5.052;2023-08-06T14:21:49;15.80;99.90
23116;DHT22;11727;52.134;5.052;2023-08-06T14:24:15;15.80;99.90
23116;DHT22;11727;52.134;5.052;2023-08-06T14:26:40;15.80;99.90
23116;DHT22;11727;52.134;5.052;2023-08-06T14:29:06;15.70;99.90
23116;DHT22;11727;52.134;5.052;2023-08-06T14:31:32;15.60;99.90
23116;DHT22;11727;52.134;5.052;2023-08-06T14:33:57;15.40;99.90
23116;DHT22;11727;52.134;5.052;2023-08-06T14:36:23;15.30;99.90
23116;DHT22;11727;52.134;5.052;2023-08-06T14:38:49;15.20;99.90
23116;DHT22;11727;52.134;5.052;2023-08-06T14:41:15;15.10;99.90
23116;DHT22;11727;52.134;5.052;2023-08-06T14:43:40;15.00;99.90
23116;DHT22;11727;52.134;5.052;2023-08-06T14:46:06;15.00;99.90
23116;DHT22;11727;52.134;5.052;2023-08-06T14:48:31;14.90;99.90
23116;DHT22;11727;52.134;5.052;2023-08-06T14:50:57;14.90;99.90
23116;DHT22;11727;52.134;5.052;2023-08-06T14:53:22;14.90;99.90
23116;DHT22;11727;52.134;5.052;2023-08-06T14:55:48;14.90;99.90
23116;DHT22;11727;52.134;5.052;2023-08-06T14:58:14;14.80;99.90
23116;DHT22;11727;52.134;5.052;2023-08-06T15:00:40;14.80;99.90
23116;DHT22;11727;52.134;5.052;2023-08-06T15:03:05;14.80;99.90
23116;DHT22;11727;52.134;5.052;2023-08-06T15:05:31;14.80;99.90
23116;DHT22;11727;52.134;5.052;2023-08-06T15:07:56;14.80;99.90
23116;DHT22;11727;52.134;5.052;2023-08-06T15:10:22;14.80;99.90
23116;DHT22;11727;52.134;5.052;2023-08-06T15:12:48;14.80;99.90
23116;DHT22;11727;52.134;5.052;2023-08-06T15:15:14;14.70;99.90
23116;DHT22;11727;52.134;5.052;2023-08-06T15:17:39;14.70;99.90
23116;DHT22;11727;52.134;5.052;2023-08-06T15:20:05;14.60;99.90
23116;DHT22;11727;52.134;5.052;2023-08-06T15:22:31;14.50;99.90
23116;DHT22;11727;52.134;5.052;2023-08-06T15:25:01;14.50;99.90
23116;DHT22;11727;52.134;5.052;2023-08-06T15:27:27;14.50;99.90
23116;DHT22;11727;52.134;5.052;2023-08-06T15:29:53;14.50;99.90
23116;DHT22;11727;52.134;5.052;2023-08-06T15:32:19;14.60;99.90
23116;DHT22;11727;52.134;5.052;2023-08-06T15:34:46;14.60;99.90
23116;DHT22;11727;52.134;5.052;2023-08-06T15:37:12;14.60;99.90
23116;DHT22;11727;52.134;5.052;2023-08-06T15:39:38;14.60;99.90
23116;DHT22;11727;52.134;5.052;2023-08-06T15:42:04;14.70;99.90
23116;DHT22;11727;52.134;5.052;2023-08-06T15:44:29;14.70;99.90
23116;DHT22;11727;52.134;5.052;2023-08-06T15:46:55;14.60;99.90